KSBN

South Bend International Airport

South Bend, Indiana, USA
KSBN 181126Z 1812/1912 24009KT P6SM SCT250 FM181800 27012KT P6SM BKN250 FM190400 31006KT P6SM VCTS BKN050CB FM190900 VRB04KT P6SM OVC050
Issued Valid From Valid To
Jun-18 @ 11:26 UTC
(2 hours ago)
Jun-18 @ 12:00 UTC
(an hour ago)
Jun-19 @ 12:00 UTC
(in 23 hours)
Jun-18 @ 12:00 to Jun-18 @ 18:00
KSBN 181126Z 1812/1912 24009KT P6SM SCT250
Wind Visibility Clouds
240° at 9 knots Greater than 6 miles
  • Scattered at 25,000' AGL
From Jun-18 @ 18:00 to Jun-19 @ 04:00
FM181800 27012KT P6SM BKN250
Wind Visibility Clouds
270° at 12 knots Greater than 6 miles
  • Broken at 25,000' AGL
From Jun-19 @ 04:00 to Jun-19 @ 09:00
FM190400 31006KT P6SM VCTS BKN050CB
Wind Visibility Clouds Conditions
310° at 6 knots Greater than 6 miles
  • Broken at 5,000' AGL
  • Area Thunderstorm
From Jun-19 @ 09:00 to Jun-19 @ 12:00
FM190900 VRB04KT P6SM OVC050
Wind Visibility Clouds
Variable at 4 knots Greater than 6 miles
  • Overcast at 5,000' AGL
KSBN 181126Z 1812/1912 24009KT P6SM SCT250 FM181800 27012KT P6SM BKN250 FM190400 31006KT P6SM VCTS BKN050CB FM190900 VRB04KT P6SM OVC050
Issued Jun-18 @ 11:26 UTC
(2 hours ago)
Valid From Jun-18 @ 12:00 UTC
(an hour ago)
Valid To Jun-19 @ 12:00 UTC
(in 23 hours)
Jun-18 @ 12:00 - Jun-18 @ 18:00
Wind Visibility
240° at 9 knots Greater than 6 miles
Clouds
  • Scattered at 25,000' AGL
From Jun-18 @ 18:00 - Jun-19 @ 04:00
Wind Visibility
270° at 12 knots Greater than 6 miles
Clouds
  • Broken at 25,000' AGL
From Jun-19 @ 04:00 - Jun-19 @ 09:00
Wind Visibility
310° at 6 knots Greater than 6 miles
Clouds
  • Broken at 5,000' AGL
Conditions
  • Area Thunderstorm
From Jun-19 @ 09:00 - Jun-19 @ 12:00
Wind Visibility
Variable at 4 knots Greater than 6 miles
Clouds
  • Overcast at 5,000' AGL